sensor_id;sensor_type;location;lat;lon;timestamp;P1;durP1;ratioP1;P2;durP2;ratioP2
45314;SDS011;31051;51.540;5.852;2023-12-20T00:10:20;12.2;;;8.8;;
45314;SDS011;31051;51.540;5.852;2023-12-20T00:22:56;14.1;;;8.4;;
45314;SDS011;31051;51.540;5.852;2023-12-20T00:35:32;13.4;;;8.5;;
45314;SDS011;31051;51.540;5.852;2023-12-20T00:48:08;13.6;;;7.1;;
45314;SDS011;31051;51.540;5.852;2023-12-20T01:00:44;11.9;;;5.0;;
45314;SDS011;31051;51.540;5.852;2023-12-20T01:13:21;12.8;;;4.4;;
45314;SDS011;31051;51.540;5.852;2023-12-20T01:25:57;12.9;;;4.2;;
45314;SDS011;31051;51.540;5.852;2023-12-20T01:38:33;13.3;;;3.6;;
45314;SDS011;31051;51.540;5.852;2023-12-20T01:51:09;12.0;;;3.6;;
45314;SDS011;31051;51.540;5.852;2023-12-20T02:03:45;12.3;;;3.3;;
45314;SDS011;31051;51.540;5.852;2023-12-20T02:16:21;11.5;;;2.9;;
45314;SDS011;31051;51.540;5.852;2023-12-20T02:28:57;11.6;;;2.9;;
45314;SDS011;31051;51.540;5.852;2023-12-20T02:41:33;10.8;;;3.0;;
45314;SDS011;31051;51.540;5.852;2023-12-20T02:54:10;13.1;;;3.3;;
45314;SDS011;31051;51.540;5.852;2023-12-20T03:06:46;13.7;;;3.5;;
45314;SDS011;31051;51.540;5.852;2023-12-20T03:19:22;11.9;;;3.4;;
45314;SDS011;31051;51.540;5.852;2023-12-20T03:31:58;13.7;;;3.7;;
45314;SDS011;31051;51.540;5.852;2023-12-20T03:44:34;12.7;;;3.8;;
45314;SDS011;31051;51.540;5.852;2023-12-20T03:57:10;13.4;;;3.6;;
45314;SDS011;31051;51.540;5.852;2023-12-20T04:09:46;12.2;;;3.5;;
45314;SDS011;31051;51.540;5.852;2023-12-20T04:22:22;14.6;;;4.0;;
45314;SDS011;31051;51.540;5.852;2023-12-20T04:34:58;11.6;;;3.8;;
45314;SDS011;31051;51.540;5.852;2023-12-20T04:47:35;14.2;;;4.4;;
45314;SDS011;31051;51.540;5.852;2023-12-20T05:00:11;13.3;;;4.9;;
45314;SDS011;31051;51.540;5.852;2023-12-20T05:12:47;13.0;;;4.9;;
45314;SDS011;31051;51.540;5.852;2023-12-20T05:25:23;12.6;;;5.0;;
45314;SDS011;31051;51.540;5.852;2023-12-20T05:37:59;15.6;;;5.3;;
45314;SDS011;31051;51.540;5.852;2023-12-20T05:50:35;13.6;;;4.8;;
45314;SDS011;31051;51.540;5.852;2023-12-20T06:03:11;14.6;;;4.8;;
45314;SDS011;31051;51.540;5.852;2023-12-20T06:15:47;13.8;;;4.6;;
45314;SDS011;31051;51.540;5.852;2023-12-20T06:28:24;16.2;;;4.9;;
45314;SDS011;31051;51.540;5.852;2023-12-20T06:41:00;13.8;;;5.1;;
45314;SDS011;31051;51.540;5.852;2023-12-20T06:53:36;13.5;;;4.8;;
45314;SDS011;31051;51.540;5.852;2023-12-20T07:06:12;12.7;;;4.3;;
45314;SDS011;31051;51.540;5.852;2023-12-20T07:18:48;12.5;;;4.2;;
45314;SDS011;31051;51.540;5.852;2023-12-20T07:31:24;13.4;;;4.3;;
45314;SDS011;31051;51.540;5.852;2023-12-20T07:44:00;12.9;;;3.9;;
45314;SDS011;31051;51.540;5.852;2023-12-20T07:56:36;13.5;;;4.2;;
45314;SDS011;31051;51.540;5.852;2023-12-20T08:09:12;11.5;;;3.6;;
45314;SDS011;31051;51.540;5.852;2023-12-20T08:21:49;13.1;;;3.8;;
45314;SDS011;31051;51.540;5.852;2023-12-20T08:34:25;12.6;;;3.8;;
45314;SDS011;31051;51.540;5.852;2023-12-20T08:47:01;12.4;;;3.5;;
45314;SDS011;31051;51.540;5.852;2023-12-20T08:59:37;12.9;;;3.7;;
45314;SDS011;31051;51.540;5.852;2023-12-20T09:12:13;12.5;;;3.7;;
45314;SDS011;31051;51.540;5.852;2023-12-20T09:24:49;11.9;;;3.7;;
45314;SDS011;31051;51.540;5.852;2023-12-20T09:37:25;12.0;;;3.8;;
45314;SDS011;31051;51.540;5.852;2023-12-20T09:50:02;11.9;;;3.6;;
45314;SDS011;31051;51.540;5.852;2023-12-20T10:02:38;11.3;;;3.6;;
45314;SDS011;31051;51.540;5.852;2023-12-20T10:15:14;11.0;;;3.7;;
45314;SDS011;31051;51.540;5.852;2023-12-20T10:27:50;11.4;;;3.4;;
45314;SDS011;31051;51.540;5.852;2023-12-20T10:40:26;11.2;;;3.6;;
45314;SDS011;31051;51.540;5.852;2023-12-20T10:53:02;12.8;;;3.8;;
45314;SDS011;31051;51.540;5.852;2023-12-20T11:05:38;12.1;;;3.6;;
45314;SDS011;31051;51.540;5.852;2023-12-20T11:18:15;13.9;;;3.9;;
45314;SDS011;31051;51.540;5.852;2023-12-20T11:30:51;11.5;;;3.7;;
45314;SDS011;31051;51.540;5.852;2023-12-20T11:43:27;12.9;;;3.6;;
45314;SDS011;31051;51.540;5.852;2023-12-20T11:56:03;13.0;;;3.7;;
45314;SDS011;31051;51.540;5.852;2023-12-20T12:08:39;12.4;;;3.9;;
45314;SDS011;31051;51.540;5.852;2023-12-20T12:21:15;12.5;;;4.1;;
45314;SDS011;31051;51.540;5.852;2023-12-20T12:33:51;14.3;;;4.5;;
45314;SDS011;31051;51.540;5.852;2023-12-20T12:46:27;13.8;;;4.8;;
45314;SDS011;31051;51.540;5.852;2023-12-20T12:59:04;13.6;;;5.0;;
45314;SDS011;31051;51.540;5.852;2023-12-20T13:11:40;12.3;;;5.2;;
45314;SDS011;31051;51.540;5.852;2023-12-20T13:24:16;12.6;;;5.6;;
45314;SDS011;31051;51.540;5.852;2023-12-20T13:36:52;15.0;;;5.8;;
45314;SDS011;31051;51.540;5.852;2023-12-20T13:49:28;12.0;;;5.6;;
45314;SDS011;31051;51.540;5.852;2023-12-20T14:02:04;13.4;;;5.2;;
45314;SDS011;31051;51.540;5.852;2023-12-20T14:14:40;12.5;;;4.7;;
45314;SDS011;31051;51.540;5.852;2023-12-20T14:27:17;14.1;;;4.7;;
45314;SDS011;31051;51.540;5.852;2023-12-20T14:39:53;12.7;;;4.5;;
45314;SDS011;31051;51.540;5.852;2023-12-20T14:52:29;11.8;;;4.3;;
45314;SDS011;31051;51.540;5.852;2023-12-20T15:05:05;12.2;;;4.0;;
45314;SDS011;31051;51.540;5.852;2023-12-20T15:17:41;12.1;;;4.1;;
45314;SDS011;31051;51.540;5.852;2023-12-20T15:30:17;11.7;;;4.2;;
45314;SDS011;31051;51.540;5.852;2023-12-20T15:42:54;12.3;;;4.6;;
45314;SDS011;31051;51.540;5.852;2023-12-20T15:55:30;13.1;;;5.4;;
45314;SDS011;31051;51.540;5.852;2023-12-20T16:08:06;14.2;;;5.6;;
45314;SDS011;31051;51.540;5.852;2023-12-20T16:20:42;11.8;;;5.6;;
45314;SDS011;31051;51.540;5.852;2023-12-20T16:33:18;12.5;;;5.6;;
45314;SDS011;31051;51.540;5.852;2023-12-20T16:45:54;11.7;;;5.2;;
45314;SDS011;31051;51.540;5.852;2023-12-20T16:58:30;11.6;;;5.1;;
45314;SDS011;31051;51.540;5.852;2023-12-20T17:11:07;11.0;;;4.9;;
45314;SDS011;31051;51.540;5.852;2023-12-20T17:23:43;11.9;;;5.2;;
45314;SDS011;31051;51.540;5.852;2023-12-20T17:36:19;11.8;;;6.2;;
45314;SDS011;31051;51.540;5.852;2023-12-20T17:48:55;13.8;;;7.4;;
45314;SDS011;31051;51.540;5.852;2023-12-20T18:01:31;12.4;;;7.8;;
45314;SDS011;31051;51.540;5.852;2023-12-20T18:14:07;14.5;;;8.8;;
45314;SDS011;31051;51.540;5.852;2023-12-20T18:26:44;13.5;;;8.7;;
45314;SDS011;31051;51.540;5.852;2023-12-20T18:39:20;13.0;;;7.5;;
45314;SDS011;31051;51.540;5.852;2023-12-20T18:51:56;11.3;;;7.1;;
45314;SDS011;31051;51.540;5.852;2023-12-20T19:04:32;10.2;;;6.4;;
45314;SDS011;31051;51.540;5.852;2023-12-20T19:17:08;9.7;;;6.8;;
45314;SDS011;31051;51.540;5.852;2023-12-20T19:29:44;10.2;;;6.8;;
45314;SDS011;31051;51.540;5.852;2023-12-20T19:42:20;9.6;;;6.6;;
45314;SDS011;31051;51.540;5.852;2023-12-20T19:54:57;8.7;;;6.1;;
45314;SDS011;31051;51.540;5.852;2023-12-20T20:07:33;9.5;;;5.9;;
45314;SDS011;31051;51.540;5.852;2023-12-20T20:20:09;8.4;;;5.4;;
45314;SDS011;31051;51.540;5.852;2023-12-20T20:32:45;8.4;;;5.1;;
45314;SDS011;31051;51.540;5.852;2023-12-20T20:45:21;8.3;;;4.6;;
45314;SDS011;31051;51.540;5.852;2023-12-20T20:57:57;8.1;;;5.0;;
45314;SDS011;31051;51.540;5.852;2023-12-20T21:10:34;9.1;;;5.8;;
45314;SDS011;31051;51.540;5.852;2023-12-20T21:23:10;10.6;;;7.1;;
45314;SDS011;31051;51.540;5.852;2023-12-20T21:35:46;10.9;;;8.3;;
45314;SDS011;31051;51.540;5.852;2023-12-20T21:48:22;11.4;;;8.8;;
45314;SDS011;31051;51.540;5.852;2023-12-20T22:00:58;11.2;;;9.8;;
45314;SDS011;31051;51.540;5.852;2023-12-20T22:13:34;12.1;;;10.6;;
45314;SDS011;31051;51.540;5.852;2023-12-20T22:26:11;12.7;;;11.1;;
45314;SDS011;31051;51.540;5.852;2023-12-20T22:38:47;11.7;;;10.6;;
45314;SDS011;31051;51.540;5.852;2023-12-20T22:51:23;11.5;;;10.4;;
45314;SDS011;31051;51.540;5.852;2023-12-20T23:03:59;12.1;;;10.4;;
45314;SDS011;31051;51.540;5.852;2023-12-20T23:16:35;12.6;;;10.7;;
45314;SDS011;31051;51.540;5.852;2023-12-20T23:29:11;12.4;;;10.7;;
45314;SDS011;31051;51.540;5.852;2023-12-20T23:41:48;12.0;;;10.8;;
45314;SDS011;31051;51.540;5.852;2023-12-20T23:54:24;11.2;;;10.1;;
